Terminal Aerodrome Forecast
Issued by NWS

Home | Current Version | Previous Version | Graphics & Text | Print | Product List | Glossary On
Versions: 1 2 3 4 5 6 7 8 9 10 11 12 13
000
FTUS43 KBIS 251733
TAFMOT
TAF
KMOT 251733Z 2518/2618 VRB04KT P6SM OVC100
     FM260100 36007KT P6SM FEW200
     FM260500 30004KT P6SM SKC
     FM260900 24006KT P6SM SKC=

USA.gov is the U.S. government's official web portal to all federal, state and local government web resources and services.